Terminal Aerodrome Forecast
Issued by NWS Glasgow, MT

Home | Current Version | Previous Version | Text Only | Print | Product List | Glossary On
Versions: 1 2 3 4 5 6 7 8 9 10 11 12 13 14
011
FTUS45 KGGW 291720
TAFGGW
TAF
KGGW 291720Z 2918/3018 24009KT P6SM FEW200
     FM300200 VRB05KT P6SM FEW150
     FM300600 09005KT P6SM VCSH BKN090
     FM301200 35004KT P6SM -SHRA OVC045=

USA.gov is the U.S. government's official web portal to all federal, state and local government web resources and services.